Time;durP1;ratioP1;P1;durP2;ratioP2;P2;SDS_P1;SDS_P2;PMS_P1;PMS_P2;Temp;Humidity;BMP_temperature;BMP_pressure;BME280_temperature;BME280_humidity;BME280_pressure;Samples;Min_cycle;Max_cycle;Signal;HPM_P1;HPM_P2
2022/05/07 00:00:23;;;;;;;4.67;4.27;;;;;;;18.02;42.04;94963.72;5064764;28;20231;-80
2022/05/07 00:02:49;;;;;;;4.30;3.97;;;;;;;18.01;42.13;94967.41;5062592;28;20218;-80
2022/05/07 00:05:15;;;;;;;5.40;4.00;;;;;;;17.68;41.75;94968.78;5047543;28;20209;-79
2022/05/07 00:07:40;;;;;;;5.63;3.60;;;;;;;18.16;40.59;94966.13;5060505;28;20198;-79
2022/05/07 00:10:06;;;;;;;4.00;3.60;;;;;;;17.95;40.51;94958.53;5066704;28;20456;-79
2022/05/07 00:12:32;;;;;;;5.03;3.63;;;;;;;17.82;39.78;94963.25;5062084;28;20193;-79
2022/05/07 00:14:57;;;;;;;4.10;3.30;;;;;;;17.35;40.64;94972.78;5066915;28;20162;-79
2022/05/07 00:20:09;;;;;;;4.00;3.67;;;;;;;17.38;40.22;94958.31;5066075;28;20213;-79
2022/05/07 00:22:34;;;;;;;4.60;4.27;;;;;;;17.46;40.26;94960.59;5067320;28;20409;-79
2022/05/07 00:24:59;;;;;;;5.50;3.50;;;;;;;17.50;40.14;94958.31;5064429;28;20523;-80
2022/05/07 00:27:25;;;;;;;4.43;4.00;;;;;;;17.28;40.31;94958.88;5056101;28;20176;-80
2022/05/07 00:29:51;;;;;;;7.50;3.47;;;;;;;17.47;40.02;94956.09;5060645;28;20226;-79
2022/05/07 00:32:17;;;;;;;3.83;3.37;;;;;;;17.34;40.07;94965.88;5066933;28;20415;-79
2022/05/07 00:34:42;;;;;;;4.67;3.20;;;;;;;17.05;40.97;94948.25;5064544;28;20208;-79
2022/05/07 00:37:08;;;;;;;4.73;3.27;;;;;;;17.56;39.77;94958.19;5063163;28;20255;-79
2022/05/07 00:39:33;;;;;;;4.80;3.50;;;;;;;17.32;39.76;94961.84;5046725;28;20167;-80
2022/05/07 00:42:06;;;;;;;3.87;3.57;;;;;;;17.28;40.09;94950.94;5056607;28;20183;-79
2022/05/07 00:44:33;;;;;;;3.57;3.27;;;;;;;17.03;39.95;94942.38;5052582;28;20200;-79
2022/05/07 00:47:25;;;;;;;3.57;3.23;;;;;;;16.90;40.74;94948.66;5065100;28;20417;-79
2022/05/07 00:51:33;;;;;;;3.77;3.00;;;;;;;17.23;39.69;94948.16;5061264;28;20837;-78
2022/05/07 00:52:42;;;;;;;5.90;3.60;;;;;;;16.98;39.83;94943.88;5065934;28;20407;-78
2022/05/07 00:55:10;;;;;;;6.30;3.50;;;;;;;16.67;40.38;94941.44;5064548;28;20489;-79
2022/05/07 00:57:35;;;;;;;5.53;3.53;;;;;;;16.35;40.51;94936.38;5065670;28;20170;-79
2022/05/07 01:00:03;;;;;;;3.20;2.90;;;;;;;17.16;39.81;94947.44;5054925;28;20457;-79
2022/05/07 01:02:28;;;;;;;5.97;3.20;;;;;;;17.28;39.11;94939.53;5053278;28;20171;-80
2022/05/07 01:04:54;;;;;;;4.97;3.47;;;;;;;16.67;39.69;94933.50;5064124;28;20461;-80
2022/05/07 01:07:20;;;;;;;2.77;2.57;;;;;;;16.76;39.15;94938.25;5065664;28;20409;-79
2022/05/07 01:09:47;;;;;;;4.87;3.20;;;;;;;16.90;39.32;94943.38;5065558;28;20661;-80
2022/05/07 01:12:13;;;;;;;5.43;3.03;;;;;;;16.56;39.96;94941.19;5078539;28;20209;-79
2022/05/07 01:14:39;;;;;;;5.40;3.27;;;;;;;16.38;40.08;94942.00;5065866;28;20420;-80
2022/05/07 01:17:08;;;;;;;4.90;3.07;;;;;;;16.39;39.86;94943.63;5065437;28;20425;-80
2022/05/07 01:19:33;;;;;;;6.10;2.50;;;;;;;16.42;39.58;94942.38;5066394;28;20162;-80
2022/05/07 01:22:00;;;;;;;3.10;2.83;;;;;;;16.63;39.38;94943.72;5062104;28;20440;-80
2022/05/07 01:24:25;;;;;;;3.20;2.90;;;;;;;17.04;38.19;94941.34;5065338;28;20186;-79
2022/05/07 01:26:51;;;;;;;3.80;3.30;;;;;;;16.84;38.45;94944.28;5064865;28;20413;-80
2022/05/07 01:29:16;;;;;;;3.23;2.93;;;;;;;16.33;39.57;94949.00;5060671;28;20206;-80
2022/05/07 01:31:42;;;;;;;3.20;2.90;;;;;;;16.76;38.66;94954.09;5065479;28;20273;-80
2022/05/07 01:34:07;;;;;;;3.73;3.00;;;;;;;16.82;38.75;94947.16;5064830;28;20286;-79
2022/05/07 01:36:32;;;;;;;2.50;2.30;;;;;;;16.68;38.51;94953.63;5065209;28;20542;-80
2022/05/07 01:38:58;;;;;;;4.00;2.83;;;;;;;16.50;39.10;94949.19;5064485;28;20178;-80
2022/05/07 01:41:24;;;;;;;2.77;2.57;;;;;;;16.39;38.72;94953.41;5065009;28;20170;-79
2022/05/07 01:43:49;;;;;;;3.40;2.73;;;;;;;16.54;38.46;94951.16;5063462;28;20210;-79
2022/05/07 01:48:59;;;;;;;3.30;3.00;;;;;;;16.71;38.41;94947.88;5064617;28;20208;-79
2022/05/07 01:51:25;;;;;;;2.43;2.23;;;;;;;16.49;38.78;94952.88;5076552;28;20425;-79
2022/05/07 01:53:50;;;;;;;4.50;3.00;;;;;;;16.58;38.50;94949.69;5044733;28;20414;-79
2022/05/07 01:56:16;;;;;;;4.03;3.40;;;;;;;16.66;38.84;94950.41;5043437;28;20281;-79
2022/05/07 01:58:41;;;;;;;3.57;3.27;;;;;;;16.83;38.89;94945.28;5063494;28;20175;-80
2022/05/07 02:01:09;;;;;;;6.33;3.00;;;;;;;16.32;39.59;94944.75;5064561;28;20178;-80
2022/05/07 02:03:35;;;;;;;3.70;3.40;;;;;;;16.75;39.76;94947.22;5063908;28;20198;-79
2022/05/07 02:06:01;;;;;;;3.03;2.73;;;;;;;16.27;40.80;94949.88;5064214;28;20936;-79
2022/05/07 02:08:26;;;;;;;4.00;3.60;;;;;;;16.51;40.17;94946.31;5067910;28;20431;-80
2022/05/07 02:10:52;;;;;;;4.40;2.87;;;;;;;16.64;39.98;94948.00;5068658;28;20617;-79
2022/05/07 02:13:17;;;;;;;5.20;3.70;;;;;;;16.81;39.45;94956.09;5068140;28;20242;-79
2022/05/07 02:15:43;;;;;;;4.13;3.13;;;;;;;16.80;39.52;94959.75;5068442;28;20666;-79
2022/05/07 02:18:09;;;;;;;3.87;3.47;;;;;;;16.88;39.15;94961.31;5068225;28;20213;-79
2022/05/07 02:20:34;;;;;;;3.93;3.40;;;;;;;16.84;39.42;94960.94;5058384;28;20426;-79
2022/05/07 02:23:00;;;;;;;3.77;2.63;;;;;;;16.27;39.87;94950.69;5099001;28;20178;-79
2022/05/07 02:25:25;;;;;;;3.20;3.00;;;;;;;16.20;40.03;94950.78;5067674;28;20194;-79
2022/05/07 02:27:52;;;;;;;3.70;3.40;;;;;;;15.93;40.59;94955.53;5066931;28;20193;-79
2022/05/07 02:30:19;;;;;;;3.93;3.40;;;;;;;15.52;41.80;94956.16;5068337;28;20214;-78
2022/05/07 02:32:47;;;;;;;3.30;3.10;;;;;;;15.73;41.29;94957.56;5069340;28;20431;-79
2022/05/07 02:35:12;;;;;;;4.33;3.10;;;;;;;15.70;41.18;94958.78;5067598;28;20425;-79
2022/05/07 02:37:37;;;;;;;4.03;2.90;;;;;;;15.66;41.94;94964.75;5068549;28;21004;-79
2022/05/07 02:40:03;;;;;;;2.43;2.23;;;;;;;14.98;42.85;94964.47;5067574;28;20179;-79
2022/05/07 02:42:39;;;;;;;3.77;2.57;;;;;;;15.06;42.49;94963.41;5061585;28;20183;-78
2022/05/07 02:45:09;;;;;;;3.40;2.83;;;;;;;15.40;41.62;94967.41;5047881;28;20835;-78
2022/05/07 02:47:37;;;;;;;2.90;2.70;;;;;;;15.93;41.30;94965.28;5052919;28;20410;-79
2022/05/07 02:50:04;;;;;;;4.67;2.83;;;;;;;15.97;40.90;94972.56;5046358;28;20430;-79
2022/05/07 02:52:33;;;;;;;4.57;3.40;;;;;;;15.58;42.07;94974.53;5060139;28;20401;-79
2022/05/07 02:54:59;;;;;;;4.90;3.13;;;;;;;15.83;41.88;94970.28;5067627;28;20406;-79
2022/05/07 02:57:25;;;;;;;6.37;3.10;;;;;;;15.55;42.02;94974.16;5067106;28;20405;-79
2022/05/07 02:59:50;;;;;;;2.80;2.60;;;;;;;15.48;42.24;94976.03;5067408;28;20417;-79
2022/05/07 03:02:16;;;;;;;4.70;3.60;;;;;;;15.13;43.42;94977.34;5082498;28;20183;-79
2022/05/07 03:04:41;;;;;;;3.63;2.57;;;;;;;15.31;43.34;94979.25;5054732;28;20210;-79
2022/05/07 03:07:07;;;;;;;3.23;2.97;;;;;;;15.38;42.65;94979.97;5066329;28;20258;-79
2022/05/07 03:09:32;;;;;;;5.47;3.70;;;;;;;15.92;42.15;94976.91;5066912;28;20549;-79
2022/05/07 03:11:57;;;;;;;6.17;3.00;;;;;;;15.88;41.87;94980.97;5067531;28;20174;-79
2022/05/07 03:14:25;;;;;;;5.70;3.67;;;;;;;15.29;42.98;94976.03;5067523;28;20197;-79
2022/05/07 03:16:50;;;;;;;4.57;3.60;;;;;;;15.30;43.74;94977.63;5067441;28;20177;-80
2022/05/07 03:19:16;;;;;;;4.57;3.40;;;;;;;15.59;42.54;94980.63;5066195;28;20428;-80
2022/05/07 03:21:42;;;;;;;3.90;3.20;;;;;;;15.46;42.78;94975.47;5066990;28;20171;-79
2022/05/07 03:24:09;;;;;;;4.20;3.30;;;;;;;15.18;43.48;94979.34;5067469;28;20187;-79
2022/05/07 03:26:34;;;;;;;3.20;3.00;;;;;;;15.66;42.33;94986.66;5066124;28;20420;-79
2022/05/07 03:29:00;;;;;;;4.33;3.50;;;;;;;15.62;42.57;94980.19;5067021;28;20468;-78
2022/05/07 03:31:26;;;;;;;5.63;3.80;;;;;;;15.50;42.68;94977.47;5066899;28;20183;-79
2022/05/07 03:33:51;;;;;;;4.00;3.70;;;;;;;15.58;42.75;94973.75;5067338;28;20424;-79
2022/05/07 03:36:17;;;;;;;3.20;2.90;;;;;;;15.49;42.80;94977.69;5066896;28;20175;-79
2022/05/07 03:38:42;;;;;;;4.00;3.70;;;;;;;15.93;42.18;94981.13;5067456;28;20186;-79
2022/05/07 03:41:08;;;;;;;4.60;3.30;;;;;;;15.72;42.41;94974.41;5067255;28;20181;-79
2022/05/07 03:43:36;;;;;;;3.73;3.37;;;;;;;15.84;41.98;94977.16;5082941;28;20198;-79
2022/05/07 03:46:03;;;;;;;3.77;3.40;;;;;;;15.67;43.27;94982.16;5054338;28;20212;-80
2022/05/07 03:48:29;;;;;;;3.63;3.40;;;;;;;15.74;42.91;94973.19;5057275;28;20447;-79
2022/05/07 03:50:55;;;;;;;4.37;3.80;;;;;;;15.84;42.46;94988.53;5074874;28;20536;-79
2022/05/07 03:53:29;;;;;;;6.17;3.47;;;;;;;16.07;42.25;94987.06;5065789;28;20514;-79
2022/05/07 03:55:56;;;;;;;8.13;3.73;;;;;;;15.92;42.16;94992.72;5057077;28;20205;-79
2022/05/07 03:58:22;;;;;;;4.30;3.50;;;;;;;15.94;42.60;94991.47;5066785;28;20447;-79
2022/05/07 04:00:47;;;;;;;6.10;3.40;;;;;;;16.00;42.22;94992.44;5066033;28;20496;-80
2022/05/07 04:03:13;;;;;;;7.27;3.80;;;;;;;16.26;42.35;94995.78;5066039;28;20198;-79
2022/05/07 04:05:39;;;;;;;5.50;4.07;;;;;;;16.44;41.96;95001.06;5051449;28;20236;-79
2022/05/07 04:08:06;;;;;;;4.90;4.50;;;;;;;16.49;41.48;95006.50;5066782;28;20425;-79
2022/05/07 04:10:31;;;;;;;5.33;4.83;;;;;;;16.64;42.04;95006.13;5065634;28;20417;-79
2022/05/07 04:12:57;;;;;;;4.77;4.40;;;;;;;16.75;41.57;95007.19;5066317;28;20421;-79
2022/05/07 04:15:22;;;;;;;6.70;4.30;;;;;;;16.81;42.03;95008.97;5065930;28;20175;-79
2022/05/07 04:17:48;;;;;;;10.70;4.40;;;;;;;16.92;42.46;95010.03;5066180;28;20174;-79
2022/05/07 04:20:14;;;;;;;5.63;4.43;;;;;;;17.15;41.60;95004.03;5065696;28;20182;-79
2022/05/07 04:22:40;;;;;;;8.53;5.20;;;;;;;16.98;42.13;95004.69;5063196;28;20440;-79
2022/05/07 04:25:07;;;;;;;6.00;4.93;;;;;;;17.27;41.08;95006.72;5046214;28;20578;-80
2022/05/07 04:27:33;;;;;;;4.57;4.00;;;;;;;16.90;41.81;95007.66;5053471;28;20185;-79
2022/05/07 04:29:58;;;;;;;5.10;3.77;;;;;;;16.50;41.14;95004.66;5065546;28;20457;-79
2022/05/07 04:32:27;;;;;;;4.80;4.20;;;;;;;16.52;42.12;94995.50;5064191;28;20246;-79
2022/05/07 04:34:57;;;;;;;4.40;4.00;;;;;;;16.45;41.72;95002.69;5065753;28;20686;-79
2022/05/07 04:37:23;;;;;;;7.60;4.27;;;;;;;16.98;40.89;95002.03;5064446;28;20417;-79
2022/05/07 04:39:49;;;;;;;4.20;3.80;;;;;;;17.07;40.28;95005.16;5064638;28;20455;-79
2022/05/07 04:42:14;;;;;;;5.17;3.63;;;;;;;17.67;39.89;95006.06;5065926;28;20436;-80
2022/05/07 04:44:40;;;;;;;4.23;3.70;;;;;;;16.93;40.70;95004.53;5066225;28;20186;-79
2022/05/07 04:47:06;;;;;;;4.60;4.07;;;;;;;16.30;41.96;95004.91;5066778;28;20182;-80
2022/05/07 04:49:36;;;;;;;5.87;3.83;;;;;;;16.97;41.25;95008.34;5065651;28;20538;-79
2022/05/07 04:52:02;;;;;;;8.47;4.03;;;;;;;16.85;41.12;95004.06;5065973;28;20515;-80
2022/05/07 04:54:28;;;;;;;4.23;3.83;;;;;;;16.16;43.15;95013.00;5065460;28;20424;-80
2022/05/07 04:56:53;;;;;;;3.77;3.57;;;;;;;17.14;41.22;95002.41;5060846;28;20494;-80
2022/05/07 04:59:20;;;;;;;5.10;3.37;;;;;;;17.17;41.01;95009.91;5067493;28;20179;-79
2022/05/07 05:01:46;;;;;;;3.90;3.60;;;;;;;17.27;40.94;95002.22;5065919;28;20183;-80
2022/05/07 05:04:13;;;;;;;3.73;3.43;;;;;;;17.13;41.28;95008.72;5064004;28;20457;-79
2022/05/07 05:06:39;;;;;;;6.20;4.53;;;;;;;16.71;41.71;95004.22;5065431;28;20916;-79
2022/05/07 05:09:06;;;;;;;5.40;4.30;;;;;;;17.25;40.80;95009.56;5049117;28;20433;-79
2022/05/07 05:11:32;;;;;;;5.10;4.00;;;;;;;17.35;41.03;95003.72;5049097;28;20480;-79
2022/05/07 05:13:58;;;;;;;4.83;4.43;;;;;;;16.95;41.66;94999.03;5063228;28;20436;-79
2022/05/07 05:16:24;;;;;;;4.80;4.10;;;;;;;17.19;41.52;95005.19;5064933;28;20412;-80
2022/05/07 05:18:50;;;;;;;4.60;4.20;;;;;;;17.26;40.77;95005.88;5059409;28;20495;-79
2022/05/07 05:21:15;;;;;;;4.40;4.00;;;;;;;17.39;40.46;95006.72;5061456;28;20171;-79
2022/05/07 05:23:41;;;;;;;5.03;4.50;;;;;;;17.03;41.64;95008.47;5059106;28;20201;-79
2022/05/07 05:26:07;;;;;;;4.57;4.10;;;;;;;17.04;41.69;95008.25;5062469;28;20193;-79
2022/05/07 05:28:33;;;;;;;9.10;4.97;;;;;;;17.35;40.80;95009.00;5057808;28;20280;-79
2022/05/07 05:30:59;;;;;;;6.10;4.27;;;;;;;17.79;39.75;95014.81;5064119;28;20237;-79
2022/05/07 05:33:25;;;;;;;5.80;4.40;;;;;;;17.41;40.85;95015.25;5061882;28;20437;-79
2022/05/07 05:35:51;;;;;;;6.57;4.43;;;;;;;17.59;40.39;95019.66;5064777;28;20442;-79
2022/05/07 05:38:16;;;;;;;8.40;4.77;;;;;;;17.60;40.64;95011.47;5064923;28;20425;-79
2022/05/07 05:40:42;;;;;;;5.40;4.33;;;;;;;17.65;40.37;95014.22;5069470;28;20179;-79
2022/05/07 05:43:11;;;;;;;4.80;4.40;;;;;;;17.91;39.79;95012.22;5064923;28;20171;-79
2022/05/07 05:45:37;;;;;;;7.83;5.10;;;;;;;17.88;40.17;95013.47;5063637;28;20202;-79
2022/05/07 05:48:04;;;;;;;5.80;4.70;;;;;;;18.25;39.21;95012.38;5056303;28;20523;-79
2022/05/07 05:50:30;;;;;;;5.00;4.60;;;;;;;18.30;39.46;95009.84;5068021;28;20179;-79
2022/05/07 05:52:56;;;;;;;7.13;5.20;;;;;;;18.60;38.91;95014.16;5067934;28;20422;-79
2022/05/07 05:55:21;;;;;;;6.40;4.60;;;;;;;18.43;39.25;95024.69;5067978;28;20484;-79
2022/05/07 05:57:47;;;;;;;6.17;4.70;;;;;;;19.20;37.70;95012.88;5072176;28;20428;-80
2022/05/07 06:00:13;;;;;;;6.03;5.30;;;;;;;18.44;39.00;95016.50;5068909;28;20265;-80
2022/05/07 06:02:39;;;;;;;5.67;4.87;;;;;;;18.20;38.82;95020.25;5065662;28;20171;-79
2022/05/07 06:05:05;;;;;;;7.53;4.10;;;;;;;18.51;39.45;95019.81;5048623;28;20457;-80
2022/05/07 06:07:30;;;;;;;4.67;4.30;;;;;;;19.16;38.07;95015.25;5065881;28;20424;-80
2022/05/07 06:09:56;;;;;;;5.90;5.43;;;;;;;19.26;37.56;95015.41;5068230;28;20413;-80
2022/05/07 06:12:21;;;;;;;7.50;4.87;;;;;;;19.82;36.56;95026.16;5055436;28;20233;-81
2022/05/07 06:14:47;;;;;;;6.47;4.40;;;;;;;19.59;37.10;95023.63;5055676;28;20206;-80
2022/05/07 06:17:13;;;;;;;5.20;4.60;;;;;;;19.41;37.63;95019.38;5068263;28;20171;-79
2022/05/07 06:19:39;;;;;;;5.80;5.20;;;;;;;19.26;37.48;95020.72;5069220;28;20437;-79
2022/05/07 06:22:04;;;;;;;9.13;5.77;;;;;;;19.68;36.91;95022.19;5065998;28;20198;-79
2022/05/07 06:27:31;;;;;;;5.10;4.70;;;;;;;19.24;37.93;95020.16;5048556;28;20186;-79
2022/05/07 06:29:57;;;;;;;4.23;3.90;;;;;;;19.13;38.17;95012.25;5060018;28;20519;-79
2022/05/07 06:32:23;;;;;;;7.73;5.00;;;;;;;19.61;38.01;95019.69;5073142;28;20425;-79
2022/05/07 06:34:49;;;;;;;6.63;4.60;;;;;;;19.76;37.18;95021.00;5069853;28;20455;-79
2022/05/07 06:37:15;;;;;;;6.20;5.13;;;;;;;19.78;37.26;95016.25;5049601;28;20460;-79
2022/05/07 06:39:41;;;;;;;7.63;5.20;;;;;;;19.42;37.95;95013.00;5061548;28;20281;-80
2022/05/07 06:42:08;;;;;;;6.00;4.33;;;;;;;19.55;38.03;95014.53;5064888;28;20234;-80
2022/05/07 06:44:33;;;;;;;6.23;4.90;;;;;;;19.96;37.45;95016.00;5050448;28;20457;-80
2022/05/07 06:46:59;;;;;;;6.57;5.20;;;;;;;20.05;37.40;95014.53;5067063;28;20423;-81
2022/05/07 06:49:25;;;;;;;6.27;4.57;;;;;;;20.54;36.32;95015.69;5063110;28;20210;-81
2022/05/07 06:51:51;;;;;;;5.90;4.43;;;;;;;20.33;36.43;95010.13;5049217;28;20231;-81
2022/05/07 06:54:17;;;;;;;5.23;4.43;;;;;;;20.49;36.16;95008.47;5059368;28;20177;-81
2022/05/07 06:56:42;;;;;;;9.43;4.90;;;;;;;19.57;37.87;95007.94;5082122;28;20816;-81
2022/05/07 06:59:09;;;;;;;5.97;5.40;;;;;;;20.19;37.03;95008.88;5068742;28;20428;-81
2022/05/07 07:01:39;;;;;;;5.50;5.00;;;;;;;20.17;37.13;95005.66;5083583;28;20175;-81
2022/05/07 07:04:05;;;;;;;5.23;4.30;;;;;;;20.66;36.78;95001.25;5052142;28;20460;-80
2022/05/07 07:06:31;;;;;;;5.20;4.70;;;;;;;20.39;37.38;94998.50;5066260;28;20979;-81
2022/05/07 07:08:56;;;;;;;5.27;4.40;;;;;;;20.30;36.92;94994.69;5067281;28;20829;-80
2022/05/07 07:11:23;;;;;;;6.00;3.77;;;;;;;20.35;36.28;94997.38;5067096;28;20167;-81
2022/05/07 07:13:49;;;;;;;5.20;3.53;;;;;;;19.85;37.33;94993.00;5084091;28;20545;-81
2022/05/07 07:16:15;;;;;;;11.23;3.67;;;;;;;20.29;37.04;94988.53;5066270;28;20455;-80
2022/05/07 07:18:40;;;;;;;9.40;5.10;;;;;;;20.04;37.44;94986.34;5066031;28;20441;-81
2022/05/07 07:21:06;;;;;;;4.70;4.30;;;;;;;21.06;35.75;94975.31;5065878;28;20435;-81
2022/05/07 07:23:31;;;;;;;7.37;5.50;;;;;;;21.21;35.12;94988.78;5064888;28;20187;-81
2022/05/07 07:25:57;;;;;;;4.27;3.97;;;;;;;21.18;35.41;94983.94;5067914;28;20182;-80
2022/05/07 07:28:23;;;;;;;5.17;4.50;;;;;;;20.63;36.26;94979.66;5095845;28;20630;-81
2022/05/07 07:30:49;;;;;;;8.63;4.70;;;;;;;20.86;35.99;94981.25;5064603;28;20219;-81
2022/05/07 07:33:15;;;;;;;5.13;4.67;;;;;;;21.08;35.68;94981.19;5061917;28;20222;-81
2022/05/07 07:35:42;;;;;;;6.03;5.23;;;;;;;20.82;36.33;94977.47;5065229;28;20547;-80
2022/05/07 07:38:07;;;;;;;5.60;5.10;;;;;;;21.59;34.78;94972.88;5058119;28;21030;-81
2022/05/07 07:40:33;;;;;;;7.33;5.17;;;;;;;21.77;34.73;94979.66;5069908;28;20421;-81
2022/05/07 07:42:58;;;;;;;5.90;5.27;;;;;;;21.70;34.89;94976.41;5065646;28;20191;-81
2022/05/07 07:48:41;;;;;;;6.70;4.73;;;;;;;22.08;33.17;94969.16;5064008;28;20197;-80
2022/05/07 07:51:36;;;;;;;5.50;4.60;;;;;;;23.14;32.09;94965.28;5055940;28;20447;-81
2022/05/07 07:54:01;;;;;;;5.90;4.67;;;;;;;22.60;32.67;94974.50;5064277;28;20417;-81
2022/05/07 07:56:27;;;;;;;6.83;4.50;;;;;;;22.83;32.84;94966.31;5065308;28;20451;-81
2022/05/07 07:58:53;;;;;;;4.93;4.47;;;;;;;22.40;33.40;94967.25;5060618;28;20201;-81
2022/05/07 08:01:18;;;;;;;5.93;5.40;;;;;;;22.69;32.69;94969.47;5061612;28;20178;-81
2022/05/07 08:03:44;;;;;;;5.87;5.27;;;;;;;22.65;32.47;94973.72;5061977;28;20217;-80
2022/05/07 08:06:09;;;;;;;4.73;4.03;;;;;;;22.69;33.20;94971.31;5075691;28;20179;-79
2022/05/07 08:14:03;;;;;;;44.13;9.70;;;;;;;22.64;33.80;94977.44;5065245;28;20419;-80
2022/05/07 08:16:28;;;;;;;39.57;7.33;;;;;;;22.98;32.55;94967.13;5062277;28;20417;-80
2022/05/07 08:18:54;;;;;;;103.37;14.10;;;;;;;23.32;32.52;94971.22;5062372;28;20187;-80
2022/05/07 08:21:20;;;;;;;34.20;7.87;;;;;;;23.58;32.15;94961.31;5067064;28;20226;-81
2022/05/07 08:24:04;;;;;;;15.10;7.33;;;;;;;23.06;32.62;94976.50;5065514;28;20217;-80
2022/05/07 08:26:29;;;;;;;69.33;17.80;;;;;;;22.57;32.81;94971.53;5065209;28;20976;-79
2022/05/07 08:28:55;;;;;;;103.43;27.23;;;;;;;23.07;32.34;94966.63;5063584;28;20472;-79
2022/05/07 08:31:22;;;;;;;16.63;9.10;;;;;;;23.35;31.90;94970.66;5061084;28;20597;-79
2022/05/07 08:33:49;;;;;;;15.47;5.30;;;;;;;23.15;31.69;94966.91;5064414;28;20619;-80
2022/05/07 08:36:14;;;;;;;95.83;12.50;;;;;;;24.02;30.84;94968.78;5065407;28;20437;-80
2022/05/07 08:38:40;;;;;;;203.17;24.90;;;;;;;23.90;31.32;94966.41;5057061;28;20425;-79
2022/05/07 08:41:06;;;;;;;6.90;5.03;;;;;;;23.05;31.71;94963.41;5065817;28;20196;-79
2022/05/07 08:43:38;;;;;;;6.30;4.60;;;;;;;22.65;31.57;94968.41;5066610;28;20489;-80
2022/05/07 08:46:16;;;;;;;9.13;5.63;;;;;;;22.14;33.03;94960.94;5063357;28;20190;-79
2022/05/07 08:48:46;;;;;;;11.43;5.20;;;;;;;22.97;32.35;94968.22;5066177;28;20765;-81
2022/05/07 08:51:14;;;;;;;169.40;20.57;;;;;;;22.23;32.86;94961.25;5063590;28;20436;-82
2022/05/07 08:53:40;;;;;;;73.63;10.43;;;;;;;22.03;32.98;94970.75;5065758;28;20397;-84
2022/05/07 08:56:07;;;;;;;35.67;6.80;;;;;;;22.24;32.74;94970.84;5066344;28;20429;-84
2022/05/07 08:58:32;;;;;;;5.37;3.70;;;;;;;22.64;31.66;94960.66;5098934;28;20421;-82
2022/05/07 09:00:59;;;;;;;23.37;6.63;;;;;;;22.55;32.08;94960.34;5073378;28;20524;-80
2022/05/07 09:03:37;;;;;;;4.27;3.87;;;;;;;22.12;32.13;94964.91;5065093;28;20181;-81
2022/05/07 09:06:03;;;;;;;115.30;17.03;;;;;;;22.46;32.57;94965.41;5066154;28;20440;-83
2022/05/07 09:08:28;;;;;;;6.83;3.93;;;;;;;22.64;31.61;94964.09;5065667;28;20413;-80
2022/05/07 09:10:54;;;;;;;3.23;3.13;;;;;;;23.01;31.29;94963.13;5098820;28;20273;-81
2022/05/07 09:13:20;;;;;;;315.63;39.23;;;;;;;22.37;32.15;94959.75;5064855;28;20256;-81
2022/05/07 09:15:57;;;;;;;169.80;22.27;;;;;;;22.60;32.32;94960.38;5069395;28;20428;-80
2022/05/07 09:18:25;;;;;;;5.57;4.20;;;;;;;23.43;30.27;94953.28;5063224;28;20269;-79
2022/05/07 09:21:16;;;;;;;1210.57;194.93;;;;;;;23.86;29.95;94954.63;5056278;28;20432;-79
2022/05/07 09:23:43;;;;;;;79.37;15.73;;;;;;;24.84;28.19;94946.28;5057319;28;20457;-77
2022/05/07 09:26:09;;;;;;;12.30;5.13;;;;;;;24.32;28.68;94951.84;5045962;28;20805;-80
2022/05/07 09:28:38;;;;;;;36.47;7.13;;;;;;;24.79;27.99;94944.41;5058457;28;20416;-78
2022/05/07 09:31:03;;;;;;;58.30;12.30;;;;;;;24.81;27.69;94944.13;5065189;28;20270;-80
2022/05/07 09:33:35;;;;;;;4.57;3.63;;;;;;;24.89;27.08;94936.31;5066187;28;20421;-79
2022/05/07 09:36:11;;;;;;;3.73;3.40;;;;;;;24.90;26.57;94935.22;5065268;28;20592;-79
2022/05/07 09:38:38;;;;;;;61.73;9.17;;;;;;;24.86;27.60;94925.38;5064128;28;20464;-79
2022/05/07 09:41:04;;;;;;;9.70;3.53;;;;;;;24.77;27.27;94921.66;5058520;28;20436;-79
2022/05/07 09:43:31;;;;;;;5.90;4.10;;;;;;;24.27;28.19;94918.94;5068964;28;20413;-80
2022/05/07 09:45:57;;;;;;;4.53;2.87;;;;;;;24.66;27.63;94908.34;5065799;28;20436;-80
2022/05/07 09:48:23;;;;;;;254.50;23.73;;;;;;;24.98;27.80;94909.75;5066356;28;20402;-81
2022/05/07 09:50:50;;;;;;;12.53;4.97;;;;;;;25.60;26.60;94922.69;5061250;28;20198;-80
2022/05/07 09:58:49;;;;;;;4.67;3.63;;;;;;;26.17;25.86;94907.63;5067009;28;20448;-80
2022/05/07 10:01:21;;;;;;;5.37;4.17;;;;;;;26.14;26.33;94916.25;5067113;28;20455;-81
2022/05/07 10:04:08;;;;;;;11.23;3.90;;;;;;;25.04;27.12;94908.66;5067162;28;20201;-86
2022/05/07 10:07:09;;;;;;;1061.03;111.63;;;;;;;25.56;26.79;94905.56;5064810;28;20492;-81
2022/05/07 10:09:53;;;;;;;8.33;4.00;;;;;;;25.87;25.98;94901.47;5062043;28;20911;-82
2022/05/07 10:12:21;;;;;;;35.07;9.90;;;;;;;26.03;25.34;94896.81;5065030;28;20493;-83
2022/05/07 10:14:52;;;;;;;5.50;3.50;;;;;;;25.60;26.07;94896.69;5064605;28;21018;-83
2022/05/07 10:17:21;;;;;;;19.23;5.03;;;;;;;26.10;25.26;94886.53;5068624;28;20423;-80
2022/05/07 10:19:49;;;;;;;4.00;3.70;;;;;;;26.29;24.69;94886.56;5084388;28;20452;-81
2022/05/07 10:22:25;;;;;;;86.93;14.23;;;;;;;26.31;23.82;94878.19;5074413;28;20456;-81
2022/05/07 10:25:07;;;;;;;112.77;15.07;;;;;;;26.38;24.26;94875.19;5065245;28;20464;-81
2022/05/07 10:27:35;;;;;;;3.90;2.80;;;;;;;26.68;23.70;94877.47;5065035;28;20424;-82
2022/05/07 10:30:05;;;;;;;11.13;3.60;;;;;;;25.70;24.92;94867.06;5068077;28;20477;-82
2022/05/07 10:32:46;;;;;;;3.33;3.13;;;;;;;25.44;25.33;94868.41;5068609;28;20427;-80
2022/05/07 10:35:14;;;;;;;6.97;3.90;;;;;;;25.49;26.09;94874.53;5064770;28;20404;-83
2022/05/07 10:37:42;;;;;;;9.73;3.70;;;;;;;25.90;25.20;94871.44;5064113;28;20452;-79
2022/05/07 10:40:12;;;;;;;9.30;3.13;;;;;;;26.35;25.09;94873.88;5060700;28;20432;-79
2022/05/07 10:42:39;;;;;;;5.57;2.90;;;;;;;26.39;23.36;94876.75;5067532;28;20456;-81
2022/05/07 10:45:20;;;;;;;10.73;3.43;;;;;;;27.00;22.19;94867.09;5074275;28;20577;-80
2022/05/07 10:47:53;;;;;;;3.80;2.57;;;;;;;26.55;22.63;94864.75;5104291;28;20433;-81
2022/05/07 10:50:21;;;;;;;5.93;2.87;;;;;;;26.26;24.15;94868.34;5070924;28;20412;-81
2022/05/07 10:52:54;;;;;;;4.43;2.73;;;;;;;25.60;23.26;94871.75;5071171;28;20443;-81
2022/05/07 10:55:25;;;;;;;3.07;2.80;;;;;;;25.65;22.42;94859.09;5074364;28;20412;-83
2022/05/07 10:57:51;;;;;;;9.90;3.23;;;;;;;25.45;23.17;94856.63;5070372;28;20427;-83
2022/05/07 11:00:18;;;;;;;3.70;2.90;;;;;;;25.61;23.71;94865.28;5068957;28;20444;-82
2022/05/07 11:03:11;;;;;;;3.50;2.63;;;;;;;24.85;24.36;94851.47;5058720;28;20209;-81
2022/05/07 11:05:38;;;;;;;6.40;2.70;;;;;;;25.43;23.89;94862.25;5056107;28;20481;-81
2022/05/07 11:08:04;;;;;;;3.03;2.83;;;;;;;24.94;24.42;94849.78;5070201;28;20451;-81
2022/05/07 11:10:31;;;;;;;24.97;3.63;;;;;;;25.51;23.64;94847.44;5071866;28;20422;-81
2022/05/07 11:13:12;;;;;;;2.83;2.63;;;;;;;25.53;24.02;94845.28;5067945;28;20178;-80
2022/05/07 11:15:38;;;;;;;6.93;3.40;;;;;;;25.67;23.71;94851.56;5060062;28;20414;-82
2022/05/07 11:18:14;;;;;;;3.70;3.40;;;;;;;25.80;22.97;94844.72;5063851;28;20528;-79
2022/05/07 11:20:41;;;;;;;5.77;3.00;;;;;;;26.46;21.42;94836.94;5067339;28;20174;-79
2022/05/07 11:23:11;;;;;;;4.10;2.90;;;;;;;25.84;20.79;94843.06;5062276;28;20440;-82
2022/05/07 11:25:36;;;;;;;5.53;2.40;;;;;;;26.19;19.83;94837.59;5063300;28;20456;-80
2022/05/07 11:28:02;;;;;;;3.30;2.00;;;;;;;27.06;18.17;94834.44;5066064;28;20440;-79
2022/05/07 11:30:28;;;;;;;4.10;2.27;;;;;;;27.27;18.30;94828.75;5071653;28;20234;-79
2022/05/07 11:32:55;;;;;;;2.60;2.40;;;;;;;27.29;18.15;94826.59;5082737;28;20431;-79
2022/05/07 11:35:24;;;;;;;1.93;1.70;;;;;;;26.78;16.88;94820.13;5082407;28;20249;-78
2022/05/07 11:37:50;;;;;;;5.67;2.50;;;;;;;26.80;16.53;94831.38;5066875;28;20421;-79
2022/05/07 11:40:27;;;;;;;2.73;2.40;;;;;;;27.80;15.83;94812.19;5066299;28;20959;-81
2022/05/07 11:45:25;;;;;;;5.20;2.20;;;;;;;27.14;15.60;94802.63;5067160;28;20213;-80
2022/05/07 11:45:38;;;;;;;2.43;2.10;;;;;;;26.19;17.30;94814.22;5082482;28;20448;-80
2022/05/07 11:48:16;;;;;;;10.20;2.30;;;;;;;26.61;17.51;94809.13;5077827;28;20429;-78
2022/05/07 11:51:01;;;;;;;8.27;4.70;;;;;;;26.47;17.95;94800.97;5064583;28;20174;-79
2022/05/07 11:53:30;;;;;;;6.23;4.13;;;;;;;27.01;18.17;94798.81;5066668;28;20500;-78
2022/05/07 11:56:07;;;;;;;5.13;2.43;;;;;;;26.30;18.89;94799.59;5067013;28;20472;-78